sensor_id;sensor_type;location;lat;lon;timestamp;P1;durP1;ratioP1;P2;durP2;ratioP2
67602;SDS011;54417;47.454;18.918;2023-04-24T00:02:12;12.30;;;5.70;;
67602;SDS011;54417;47.454;18.918;2023-04-24T00:07:16;12.38;;;5.50;;
67602;SDS011;54417;47.454;18.918;2023-04-24T00:12:22;7.97;;;5.75;;
67602;SDS011;54417;47.454;18.918;2023-04-24T00:17:27;16.75;;;6.40;;
67602;SDS011;54417;47.454;18.918;2023-04-24T00:22:31;10.48;;;5.93;;
67602;SDS011;54417;47.454;18.918;2023-04-24T00:27:35;15.77;;;6.13;;
67602;SDS011;54417;47.454;18.918;2023-04-24T00:32:40;8.88;;;6.35;;
67602;SDS011;54417;47.454;18.918;2023-04-24T00:37:49;7.97;;;6.13;;
67602;SDS011;54417;47.454;18.918;2023-04-24T00:42:58;10.95;;;6.03;;
67602;SDS011;54417;47.454;18.918;2023-04-24T00:48:04;9.10;;;5.90;;
67602;SDS011;54417;47.454;18.918;2023-04-24T00:53:08;8.80;;;5.57;;
67602;SDS011;54417;47.454;18.918;2023-04-24T00:58:12;10.50;;;6.15;;
67602;SDS011;54417;47.454;18.918;2023-04-24T01:03:24;9.02;;;5.50;;
67602;SDS011;54417;47.454;18.918;2023-04-24T01:08:29;7.95;;;5.80;;
67602;SDS011;54417;47.454;18.918;2023-04-24T01:13:39;7.97;;;5.85;;
67602;SDS011;54417;47.454;18.918;2023-04-24T01:18:46;9.70;;;5.38;;
67602;SDS011;54417;47.454;18.918;2023-04-24T01:23:56;12.52;;;5.75;;
67602;SDS011;54417;47.454;18.918;2023-04-24T01:29:01;9.98;;;5.80;;
67602;SDS011;54417;47.454;18.918;2023-04-24T01:34:05;7.07;;;6.38;;
67602;SDS011;54417;47.454;18.918;2023-04-24T01:39:11;6.90;;;6.10;;
67602;SDS011;54417;47.454;18.918;2023-04-24T01:44:20;16.75;;;5.82;;
67602;SDS011;54417;47.454;18.918;2023-04-24T01:49:24;11.77;;;6.00;;
67602;SDS011;54417;47.454;18.918;2023-04-24T01:54:30;6.85;;;5.25;;
67602;SDS011;54417;47.454;18.918;2023-04-24T01:59:34;8.00;;;6.10;;
67602;SDS011;54417;47.454;18.918;2023-04-24T02:04:39;8.63;;;5.43;;
67602;SDS011;54417;47.454;18.918;2023-04-24T02:09:44;6.55;;;5.15;;
67602;SDS011;54417;47.454;18.918;2023-04-24T02:14:53;12.27;;;5.90;;
67602;SDS011;54417;47.454;18.918;2023-04-24T02:19:56;9.88;;;5.00;;
67602;SDS011;54417;47.454;18.918;2023-04-24T02:25:02;8.38;;;5.97;;
67602;SDS011;54417;47.454;18.918;2023-04-24T02:30:06;9.18;;;5.97;;
67602;SDS011;54417;47.454;18.918;2023-04-24T02:35:11;7.82;;;6.15;;
67602;SDS011;54417;47.454;18.918;2023-04-24T02:40:16;10.75;;;5.80;;
67602;SDS011;54417;47.454;18.918;2023-04-24T02:45:22;8.80;;;6.22;;
67602;SDS011;54417;47.454;18.918;2023-04-24T02:50:25;8.18;;;5.55;;
67602;SDS011;54417;47.454;18.918;2023-04-24T02:55:36;19.98;;;5.95;;
67602;SDS011;54417;47.454;18.918;2023-04-24T03:00:39;9.73;;;6.25;;
67602;SDS011;54417;47.454;18.918;2023-04-24T03:05:43;12.15;;;6.90;;
67602;SDS011;54417;47.454;18.918;2023-04-24T03:10:49;13.50;;;6.63;;
67602;SDS011;54417;47.454;18.918;2023-04-24T03:15:52;11.52;;;6.75;;
67602;SDS011;54417;47.454;18.918;2023-04-24T03:20:57;12.45;;;7.60;;
67602;SDS011;54417;47.454;18.918;2023-04-24T03:26:03;11.60;;;8.10;;
67602;SDS011;54417;47.454;18.918;2023-04-24T03:31:09;11.25;;;7.70;;
67602;SDS011;54417;47.454;18.918;2023-04-24T03:36:13;10.95;;;8.00;;
67602;SDS011;54417;47.454;18.918;2023-04-24T03:41:19;18.38;;;9.45;;
67602;SDS011;54417;47.454;18.918;2023-04-24T03:46:29;12.30;;;8.50;;
67602;SDS011;54417;47.454;18.918;2023-04-24T03:51:40;12.02;;;7.63;;
67602;SDS011;54417;47.454;18.918;2023-04-24T03:56:54;11.10;;;7.15;;
67602;SDS011;54417;47.454;18.918;2023-04-24T04:02:05;11.35;;;6.95;;
67602;SDS011;54417;47.454;18.918;2023-04-24T04:07:16;13.38;;;7.47;;
67602;SDS011;54417;47.454;18.918;2023-04-24T04:12:22;14.18;;;8.27;;
67602;SDS011;54417;47.454;18.918;2023-04-24T04:17:25;12.50;;;8.65;;
67602;SDS011;54417;47.454;18.918;2023-04-24T04:22:30;11.55;;;7.25;;
67602;SDS011;54417;47.454;18.918;2023-04-24T04:27:37;8.40;;;5.95;;
67602;SDS011;54417;47.454;18.918;2023-04-24T04:32:45;10.93;;;6.93;;
67602;SDS011;54417;47.454;18.918;2023-04-24T04:37:54;8.52;;;7.05;;
67602;SDS011;54417;47.454;18.918;2023-04-24T04:43:12;9.40;;;6.90;;
67602;SDS011;54417;47.454;18.918;2023-04-24T04:48:23;15.57;;;7.10;;
67602;SDS011;54417;47.454;18.918;2023-04-24T04:53:34;13.43;;;7.07;;
67602;SDS011;54417;47.454;18.918;2023-04-24T04:58:44;11.25;;;7.25;;
67602;SDS011;54417;47.454;18.918;2023-04-24T05:03:51;10.00;;;7.22;;
67602;SDS011;54417;47.454;18.918;2023-04-24T05:08:56;13.65;;;7.07;;
67602;SDS011;54417;47.454;18.918;2023-04-24T05:14:13;9.30;;;7.40;;
67602;SDS011;54417;47.454;18.918;2023-04-24T05:19:20;7.80;;;6.95;;
67602;SDS011;54417;47.454;18.918;2023-04-24T05:24:30;10.07;;;6.97;;
67602;SDS011;54417;47.454;18.918;2023-04-24T05:29:59;8.70;;;7.10;;
67602;SDS011;54417;47.454;18.918;2023-04-24T05:35:04;13.75;;;9.60;;
67602;SDS011;54417;47.454;18.918;2023-04-24T05:40:13;13.30;;;7.50;;
67602;SDS011;54417;47.454;18.918;2023-04-24T05:45:24;8.82;;;6.15;;
67602;SDS011;54417;47.454;18.918;2023-04-24T05:50:33;11.57;;;7.65;;
67602;SDS011;54417;47.454;18.918;2023-04-24T05:55:38;10.30;;;7.65;;
67602;SDS011;54417;47.454;18.918;2023-04-24T06:00:48;12.75;;;7.78;;
67602;SDS011;54417;47.454;18.918;2023-04-24T06:05:52;15.10;;;8.13;;
67602;SDS011;54417;47.454;18.918;2023-04-24T06:11:02;13.90;;;7.82;;
67602;SDS011;54417;47.454;18.918;2023-04-24T06:16:13;11.35;;;7.63;;
67602;SDS011;54417;47.454;18.918;2023-04-24T06:21:27;11.98;;;7.22;;
67602;SDS011;54417;47.454;18.918;2023-04-24T06:26:31;10.68;;;7.50;;
67602;SDS011;54417;47.454;18.918;2023-04-24T06:31:36;10.35;;;7.60;;
67602;SDS011;54417;47.454;18.918;2023-04-24T06:36:40;12.82;;;7.53;;
67602;SDS011;54417;47.454;18.918;2023-04-24T06:41:49;12.00;;;7.82;;
67602;SDS011;54417;47.454;18.918;2023-04-24T06:46:56;9.35;;;7.63;;
67602;SDS011;54417;47.454;18.918;2023-04-24T06:52:05;11.70;;;8.47;;
67602;SDS011;54417;47.454;18.918;2023-04-24T06:57:14;8.38;;;7.20;;
67602;SDS011;54417;47.454;18.918;2023-04-24T07:02:25;13.43;;;8.30;;
67602;SDS011;54417;47.454;18.918;2023-04-24T07:07:34;13.35;;;8.65;;
67602;SDS011;54417;47.454;18.918;2023-04-24T07:12:40;14.70;;;7.00;;
67602;SDS011;54417;47.454;18.918;2023-04-24T07:17:46;13.18;;;7.72;;
67602;SDS011;54417;47.454;18.918;2023-04-24T07:22:50;10.55;;;7.22;;
67602;SDS011;54417;47.454;18.918;2023-04-24T07:28:01;11.63;;;7.15;;
67602;SDS011;54417;47.454;18.918;2023-04-24T07:33:06;12.57;;;7.40;;
67602;SDS011;54417;47.454;18.918;2023-04-24T07:38:15;9.18;;;6.55;;
67602;SDS011;54417;47.454;18.918;2023-04-24T07:43:24;10.60;;;6.68;;
67602;SDS011;54417;47.454;18.918;2023-04-24T07:48:29;10.82;;;6.10;;
67602;SDS011;54417;47.454;18.918;2023-04-24T07:53:38;13.23;;;6.30;;
67602;SDS011;54417;47.454;18.918;2023-04-24T07:58:47;9.63;;;6.93;;
67602;SDS011;54417;47.454;18.918;2023-04-24T08:03:57;10.85;;;6.80;;
67602;SDS011;54417;47.454;18.918;2023-04-24T08:14:15;12.90;;;6.80;;
67602;SDS011;54417;47.454;18.918;2023-04-24T08:19:20;8.98;;;6.72;;
67602;SDS011;54417;47.454;18.918;2023-04-24T08:24:29;11.77;;;7.30;;
67602;SDS011;54417;47.454;18.918;2023-04-24T08:29:38;9.23;;;6.70;;
67602;SDS011;54417;47.454;18.918;2023-04-24T08:34:48;9.02;;;7.10;;
67602;SDS011;54417;47.454;18.918;2023-04-24T08:39:54;8.98;;;6.43;;
67602;SDS011;54417;47.454;18.918;2023-04-24T08:44:57;11.65;;;5.18;;
67602;SDS011;54417;47.454;18.918;2023-04-24T08:50:08;8.73;;;5.97;;
67602;SDS011;54417;47.454;18.918;2023-04-24T08:55:30;7.22;;;5.70;;
67602;SDS011;54417;47.454;18.918;2023-04-24T09:00:35;6.93;;;6.10;;
67602;SDS011;54417;47.454;18.918;2023-04-24T09:05:42;7.13;;;6.10;;
67602;SDS011;54417;47.454;18.918;2023-04-24T09:10:47;9.77;;;6.00;;
67602;SDS011;54417;47.454;18.918;2023-04-24T09:15:57;8.63;;;6.13;;
67602;SDS011;54417;47.454;18.918;2023-04-24T09:21:09;5.60;;;4.82;;
67602;SDS011;54417;47.454;18.918;2023-04-24T09:26:18;6.18;;;4.63;;
67602;SDS011;54417;47.454;18.918;2023-04-24T09:31:27;12.10;;;6.43;;
67602;SDS011;54417;47.454;18.918;2023-04-24T09:36:34;6.65;;;5.25;;
67602;SDS011;54417;47.454;18.918;2023-04-24T09:41:45;7.82;;;6.28;;
67602;SDS011;54417;47.454;18.918;2023-04-24T09:46:50;13.13;;;6.38;;
67602;SDS011;54417;47.454;18.918;2023-04-24T09:57:14;10.27;;;5.90;;
67602;SDS011;54417;47.454;18.918;2023-04-24T10:02:23;10.90;;;5.40;;
67602;SDS011;54417;47.454;18.918;2023-04-24T10:07:28;11.48;;;5.60;;
67602;SDS011;54417;47.454;18.918;2023-04-24T10:12:37;8.98;;;6.35;;
67602;SDS011;54417;47.454;18.918;2023-04-24T10:17:40;11.27;;;6.05;;
67602;SDS011;54417;47.454;18.918;2023-04-24T10:22:51;13.30;;;5.50;;
67602;SDS011;54417;47.454;18.918;2023-04-24T10:27:55;9.15;;;5.57;;
67602;SDS011;54417;47.454;18.918;2023-04-24T10:33:01;9.70;;;5.90;;
67602;SDS011;54417;47.454;18.918;2023-04-24T10:38:08;7.13;;;5.68;;
67602;SDS011;54417;47.454;18.918;2023-04-24T10:43:16;7.10;;;5.72;;
67602;SDS011;54417;47.454;18.918;2023-04-24T10:48:26;8.63;;;6.45;;
67602;SDS011;54417;47.454;18.918;2023-04-24T10:53:36;7.82;;;5.90;;
67602;SDS011;54417;47.454;18.918;2023-04-24T10:58:50;11.48;;;6.22;;
67602;SDS011;54417;47.454;18.918;2023-04-24T11:04:00;9.50;;;6.18;;
67602;SDS011;54417;47.454;18.918;2023-04-24T11:09:11;10.85;;;5.10;;
67602;SDS011;54417;47.454;18.918;2023-04-24T11:14:23;4.97;;;3.00;;
67602;SDS011;54417;47.454;18.918;2023-04-24T11:19:33;14.45;;;3.50;;
67602;SDS011;54417;47.454;18.918;2023-04-24T11:24:50;3.38;;;3.00;;
67602;SDS011;54417;47.454;18.918;2023-04-24T11:30:04;4.32;;;2.80;;
67602;SDS011;54417;47.454;18.918;2023-04-24T11:35:15;6.50;;;2.80;;
67602;SDS011;54417;47.454;18.918;2023-04-24T11:40:26;3.75;;;2.60;;
67602;SDS011;54417;47.454;18.918;2023-04-24T11:45:35;5.25;;;2.67;;
67602;SDS011;54417;47.454;18.918;2023-04-24T11:50:46;5.97;;;2.70;;
67602;SDS011;54417;47.454;18.918;2023-04-24T11:55:51;7.20;;;2.65;;
67602;SDS011;54417;47.454;18.918;2023-04-24T12:00:55;5.35;;;2.70;;
67602;SDS011;54417;47.454;18.918;2023-04-24T12:06:05;4.82;;;2.38;;
67602;SDS011;54417;47.454;18.918;2023-04-24T12:11:16;2.78;;;2.38;;
67602;SDS011;54417;47.454;18.918;2023-04-24T12:16:23;7.35;;;2.05;;
67602;SDS011;54417;47.454;18.918;2023-04-24T12:21:34;8.75;;;2.75;;
67602;SDS011;54417;47.454;18.918;2023-04-24T12:26:41;4.90;;;2.47;;
67602;SDS011;54417;47.454;18.918;2023-04-24T12:31:46;6.95;;;2.50;;
67602;SDS011;54417;47.454;18.918;2023-04-24T12:36:55;6.25;;;2.67;;
67602;SDS011;54417;47.454;18.918;2023-04-24T12:42:05;6.80;;;2.42;;
67602;SDS011;54417;47.454;18.918;2023-04-24T12:47:14;5.63;;;2.60;;
67602;SDS011;54417;47.454;18.918;2023-04-24T12:52:23;4.32;;;2.47;;
67602;SDS011;54417;47.454;18.918;2023-04-24T12:57:34;7.80;;;2.42;;
67602;SDS011;54417;47.454;18.918;2023-04-24T13:02:44;5.97;;;2.40;;
67602;SDS011;54417;47.454;18.918;2023-04-24T13:07:53;8.45;;;3.75;;
67602;SDS011;54417;47.454;18.918;2023-04-24T13:12:59;8.90;;;3.58;;
67602;SDS011;54417;47.454;18.918;2023-04-24T13:23:16;5.30;;;3.38;;
67602;SDS011;54417;47.454;18.918;2023-04-24T13:28:26;4.75;;;3.55;;
67602;SDS011;54417;47.454;18.918;2023-04-24T13:33:31;6.20;;;3.72;;
67602;SDS011;54417;47.454;18.918;2023-04-24T13:38:40;7.03;;;3.30;;
67602;SDS011;54417;47.454;18.918;2023-04-24T13:43:45;5.35;;;4.43;;
67602;SDS011;54417;47.454;18.918;2023-04-24T13:48:49;10.93;;;4.47;;
67602;SDS011;54417;47.454;18.918;2023-04-24T13:53:58;8.52;;;5.15;;
67602;SDS011;54417;47.454;18.918;2023-04-24T13:59:08;10.80;;;5.32;;
67602;SDS011;54417;47.454;18.918;2023-04-24T14:04:12;6.63;;;5.13;;
67602;SDS011;54417;47.454;18.918;2023-04-24T14:09:21;8.15;;;5.45;;
67602;SDS011;54417;47.454;18.918;2023-04-24T14:14:31;11.55;;;6.88;;
67602;SDS011;54417;47.454;18.918;2023-04-24T14:19:35;12.43;;;5.75;;
67602;SDS011;54417;47.454;18.918;2023-04-24T14:24:43;10.32;;;6.13;;
67602;SDS011;54417;47.454;18.918;2023-04-24T14:29:54;8.77;;;6.22;;
67602;SDS011;54417;47.454;18.918;2023-04-24T14:35:02;9.85;;;6.22;;
67602;SDS011;54417;47.454;18.918;2023-04-24T14:40:08;6.85;;;5.63;;
67602;SDS011;54417;47.454;18.918;2023-04-24T14:45:33;6.88;;;5.15;;
67602;SDS011;54417;47.454;18.918;2023-04-24T14:50:37;8.73;;;5.07;;
67602;SDS011;54417;47.454;18.918;2023-04-24T14:55:46;7.63;;;5.03;;
67602;SDS011;54417;47.454;18.918;2023-04-24T15:00:56;5.45;;;4.95;;
67602;SDS011;54417;47.454;18.918;2023-04-24T15:06:05;6.20;;;5.28;;
67602;SDS011;54417;47.454;18.918;2023-04-24T15:11:14;5.82;;;4.72;;
67602;SDS011;54417;47.454;18.918;2023-04-24T15:16:24;5.75;;;5.10;;
67602;SDS011;54417;47.454;18.918;2023-04-24T15:21:29;7.13;;;4.75;;
67602;SDS011;54417;47.454;18.918;2023-04-24T15:26:37;4.88;;;4.35;;
67602;SDS011;54417;47.454;18.918;2023-04-24T15:31:47;6.85;;;3.70;;
67602;SDS011;54417;47.454;18.918;2023-04-24T15:36:56;3.97;;;3.58;;
67602;SDS011;54417;47.454;18.918;2023-04-24T15:42:05;4.97;;;3.42;;
67602;SDS011;54417;47.454;18.918;2023-04-24T15:47:15;5.45;;;3.80;;
67602;SDS011;54417;47.454;18.918;2023-04-24T15:52:24;5.47;;;3.22;;
67602;SDS011;54417;47.454;18.918;2023-04-24T15:57:33;3.88;;;3.58;;
67602;SDS011;54417;47.454;18.918;2023-04-24T16:02:38;3.47;;;3.17;;
67602;SDS011;54417;47.454;18.918;2023-04-24T16:07:42;5.03;;;3.65;;
67602;SDS011;54417;47.454;18.918;2023-04-24T16:12:46;3.58;;;3.25;;
67602;SDS011;54417;47.454;18.918;2023-04-24T16:17:57;4.43;;;3.33;;
67602;SDS011;54417;47.454;18.918;2023-04-24T16:23:06;4.13;;;3.73;;
67602;SDS011;54417;47.454;18.918;2023-04-24T16:28:15;5.05;;;3.60;;
67602;SDS011;54417;47.454;18.918;2023-04-24T16:33:25;4.68;;;3.75;;
67602;SDS011;54417;47.454;18.918;2023-04-24T16:38:29;3.80;;;3.33;;
67602;SDS011;54417;47.454;18.918;2023-04-24T16:43:37;3.92;;;3.35;;
67602;SDS011;54417;47.454;18.918;2023-04-24T16:48:47;4.25;;;3.85;;
67602;SDS011;54417;47.454;18.918;2023-04-24T16:53:56;4.55;;;3.92;;
67602;SDS011;54417;47.454;18.918;2023-04-24T16:59:00;4.22;;;3.83;;
67602;SDS011;54417;47.454;18.918;2023-04-24T17:04:05;5.60;;;4.47;;
67602;SDS011;54417;47.454;18.918;2023-04-24T17:09:14;4.47;;;4.07;;
67602;SDS011;54417;47.454;18.918;2023-04-24T17:14:23;4.70;;;4.20;;
67602;SDS011;54417;47.454;18.918;2023-04-24T17:19:34;5.55;;;4.95;;
67602;SDS011;54417;47.454;18.918;2023-04-24T17:24:42;6.00;;;5.40;;
67602;SDS011;54417;47.454;18.918;2023-04-24T17:29:51;5.68;;;4.93;;
67602;SDS011;54417;47.454;18.918;2023-04-24T17:35:01;5.50;;;5.00;;
67602;SDS011;54417;47.454;18.918;2023-04-24T17:40:10;4.93;;;4.53;;
67602;SDS011;54417;47.454;18.918;2023-04-24T17:45:19;4.65;;;4.22;;
67602;SDS011;54417;47.454;18.918;2023-04-24T17:50:29;4.18;;;3.20;;
67602;SDS011;54417;47.454;18.918;2023-04-24T17:55:38;3.63;;;2.83;;
67602;SDS011;54417;47.454;18.918;2023-04-24T18:00:49;6.45;;;2.70;;
67602;SDS011;54417;47.454;18.918;2023-04-24T18:05:59;4.35;;;2.85;;
67602;SDS011;54417;47.454;18.918;2023-04-24T18:11:08;4.47;;;2.83;;
67602;SDS011;54417;47.454;18.918;2023-04-24T18:16:12;3.22;;;2.08;;
67602;SDS011;54417;47.454;18.918;2023-04-24T18:21:22;2.33;;;2.13;;
67602;SDS011;54417;47.454;18.918;2023-04-24T18:26:31;3.88;;;2.05;;
67602;SDS011;54417;47.454;18.918;2023-04-24T18:31:39;3.38;;;2.58;;
67602;SDS011;54417;47.454;18.918;2023-04-24T18:36:45;5.97;;;2.10;;
67602;SDS011;54417;47.454;18.918;2023-04-24T18:41:48;2.20;;;2.00;;
67602;SDS011;54417;47.454;18.918;2023-04-24T18:46:52;3.20;;;1.75;;
67602;SDS011;54417;47.454;18.918;2023-04-24T18:52:02;3.78;;;2.53;;
67602;SDS011;54417;47.454;18.918;2023-04-24T18:57:11;7.20;;;2.63;;
67602;SDS011;54417;47.454;18.918;2023-04-24T19:02:14;2.45;;;2.20;;
67602;SDS011;54417;47.454;18.918;2023-04-24T19:07:25;4.47;;;2.33;;
67602;SDS011;54417;47.454;18.918;2023-04-24T19:12:30;2.00;;;1.80;;
67602;SDS011;54417;47.454;18.918;2023-04-24T19:17:39;2.33;;;2.13;;
67602;SDS011;54417;47.454;18.918;2023-04-24T19:22:49;2.25;;;1.70;;
67602;SDS011;54417;47.454;18.918;2023-04-24T19:27:53;2.55;;;1.95;;
67602;SDS011;54417;47.454;18.918;2023-04-24T19:33:02;1.90;;;1.73;;
67602;SDS011;54417;47.454;18.918;2023-04-24T19:38:12;2.15;;;1.75;;
67602;SDS011;54417;47.454;18.918;2023-04-24T19:43:21;2.65;;;1.60;;
67602;SDS011;54417;47.454;18.918;2023-04-24T19:48:25;1.50;;;1.40;;
67602;SDS011;54417;47.454;18.918;2023-04-24T19:53:33;1.67;;;1.58;;
67602;SDS011;54417;47.454;18.918;2023-04-24T19:58:42;5.65;;;2.05;;
67602;SDS011;54417;47.454;18.918;2023-04-24T20:03:45;2.95;;;1.90;;
67602;SDS011;54417;47.454;18.918;2023-04-24T20:08:56;3.25;;;1.75;;
67602;SDS011;54417;47.454;18.918;2023-04-24T20:14:04;3.25;;;1.85;;
67602;SDS011;54417;47.454;18.918;2023-04-24T20:19:13;2.33;;;1.80;;
67602;SDS011;54417;47.454;18.918;2023-04-24T20:24:23;1.83;;;1.73;;
67602;SDS011;54417;47.454;18.918;2023-04-24T20:29:32;2.80;;;2.22;;
67602;SDS011;54417;47.454;18.918;2023-04-24T20:34:41;2.70;;;2.45;;
67602;SDS011;54417;47.454;18.918;2023-04-24T20:39:46;4.40;;;3.15;;
67602;SDS011;54417;47.454;18.918;2023-04-24T20:44:52;3.60;;;3.22;;
67602;SDS011;54417;47.454;18.918;2023-04-24T20:50:00;4.45;;;3.05;;
67602;SDS011;54417;47.454;18.918;2023-04-24T20:55:11;3.95;;;3.33;;
67602;SDS011;54417;47.454;18.918;2023-04-24T21:00:16;7.22;;;3.30;;
67602;SDS011;54417;47.454;18.918;2023-04-24T21:05:25;6.78;;;3.15;;
67602;SDS011;54417;47.454;18.918;2023-04-24T21:10:30;3.92;;;3.33;;
67602;SDS011;54417;47.454;18.918;2023-04-24T21:15:34;3.55;;;3.25;;
67602;SDS011;54417;47.454;18.918;2023-04-24T21:20:43;3.30;;;3.00;;
67602;SDS011;54417;47.454;18.918;2023-04-24T21:25:49;3.10;;;2.80;;
67602;SDS011;54417;47.454;18.918;2023-04-24T21:30:53;2.88;;;2.67;;
67602;SDS011;54417;47.454;18.918;2023-04-24T21:36:02;3.17;;;2.88;;
67602;SDS011;54417;47.454;18.918;2023-04-24T21:41:12;3.22;;;2.55;;
67602;SDS011;54417;47.454;18.918;2023-04-24T21:46:21;2.53;;;2.33;;
67602;SDS011;54417;47.454;18.918;2023-04-24T21:51:30;2.20;;;2.00;;
67602;SDS011;54417;47.454;18.918;2023-04-24T21:56:41;2.08;;;1.88;;
67602;SDS011;54417;47.454;18.918;2023-04-24T22:01:49;1.63;;;1.45;;
67602;SDS011;54417;47.454;18.918;2023-04-24T22:06:58;2.92;;;1.70;;
67602;SDS011;54417;47.454;18.918;2023-04-24T22:12:08;1.73;;;1.50;;
67602;SDS011;54417;47.454;18.918;2023-04-24T22:17:17;2.97;;;1.45;;
67602;SDS011;54417;47.454;18.918;2023-04-24T22:22:26;1.60;;;1.20;;
67602;SDS011;54417;47.454;18.918;2023-04-24T22:27:36;1.98;;;1.50;;
67602;SDS011;54417;47.454;18.918;2023-04-24T22:32:46;1.50;;;1.40;;
67602;SDS011;54417;47.454;18.918;2023-04-24T22:37:52;1.45;;;1.35;;
67602;SDS011;54417;47.454;18.918;2023-04-24T22:42:57;1.98;;;1.30;;
67602;SDS011;54417;47.454;18.918;2023-04-24T22:48:06;1.90;;;1.48;;
67602;SDS011;54417;47.454;18.918;2023-04-24T22:53:15;1.40;;;1.25;;
67602;SDS011;54417;47.454;18.918;2023-04-24T22:58:20;6.38;;;2.00;;
67602;SDS011;54417;47.454;18.918;2023-04-24T23:03:29;1.67;;;1.50;;
67602;SDS011;54417;47.454;18.918;2023-04-24T23:08:39;1.77;;;1.27;;
67602;SDS011;54417;47.454;18.918;2023-04-24T23:13:49;1.25;;;1.10;;
67602;SDS011;54417;47.454;18.918;2023-04-24T23:18:53;3.35;;;1.23;;
67602;SDS011;54417;47.454;18.918;2023-04-24T23:24:01;1.30;;;1.20;;
67602;SDS011;54417;47.454;18.918;2023-04-24T23:29:12;1.40;;;1.30;;
67602;SDS011;54417;47.454;18.918;2023-04-24T23:34:20;2.08;;;1.52;;
67602;SDS011;54417;47.454;18.918;2023-04-24T23:39:29;2.10;;;1.33;;
67602;SDS011;54417;47.454;18.918;2023-04-24T23:44:35;2.53;;;1.27;;
67602;SDS011;54417;47.454;18.918;2023-04-24T23:49:38;1.38;;;1.27;;
67602;SDS011;54417;47.454;18.918;2023-04-24T23:54:47;1.50;;;1.40;;
67602;SDS011;54417;47.454;18.918;2023-04-24T23:59:57;1.30;;;1.20;;
